Terminal Aerodrome Forecast
Issued by NWS

Home | Current Version | Previous Version | Graphics & Text | Print | Product List | Glossary On
Versions: 1 2 3 4 5 6 7 8 9 10 11 12 13 14 15 16 17
000
FTUS43 KOAX 170521
TAFCDR
TAF
KCDR 170521Z 1706/1806 27008KT P6SM SCT070 BKN100
     FM171200 30011KT P6SM SCT150
     FM172100 04008KT P6SM BKN150
     FM180100 18010KT P6SM BKN050 OVC100=

USA.gov is the U.S. government's official web portal to all federal, state and local government web resources and services.